Bobby Golding — WDH2183 — position and weather

sailwx.info

Track history (hours):
 
Tides and Currents Weather Stations Pressure Air Temp Water Temp Dewpoint Dewpoint Depression Visibility Wind Speed Wind Dir Waves Ship Positions

Bobby Golding

Owner: GOLDING BARGE LINE, INC, VICKSBURG, MS. More information available from US FCC via Universal Licensing System and Coast Guard Vessel Documentation Center.

Last reported at 2018-Jun-14 10:50 UTC. Time now 2018-Jun-20 22:49 UTC.
Position N 29°43' W 095°01'.

Length 209 m; draft 2.8 m.

Type: . MMSI: 367595180.

Date/timePositionNaut miles runAvg speedWind from/ knotsBaromVisibWave heightAir tempDewpointWater temp
2018-Jun-14 10:50N 29°43' W 095°01'2 6.5
2018-Jun-14 10:30N 29°42' W 094°60'4 7.6
2018-Jun-14 10:00N 29°38' W 094°58'15 7.8
2018-Jun-14 08:02N 29°25' W 094°49'0 7.7
2018-Jun-14 08:00N 29°25' W 094°49'4 4.0
2018-Jun-14 07:05N 29°24' W 094°45'1 4.3
2018-Jun-14 06:49N 29°25' W 094°44'2 5.0
2018-Jun-14 06:27N 29°26' W 094°43'4 4.9
2018-Jun-14 05:41N 29°28' W 094°39'2 5.2
2018-Jun-14 05:20N 29°29' W 094°37'5 5.0
2018-Jun-14 04:24N 29°30' W 094°32'2 4.1
2018-Jun-14 03:55N 29°31' W 094°30'2 4.1
2018-Jun-14 03:30N 29°32' W 094°29'2 4.7
2018-Jun-14 02:59N 29°34' W 094°26'2 4.1
2018-Jun-14 02:28N 29°36' W 094°25'2 4.5
2018-Jun-14 02:00N 29°36' W 094°23'2 4.9
2018-Jun-14 01:30N 29°37' W 094°20'2 4.9
2018-Jun-14 01:00N 29°38' W 094°18'3 5.0
2018-Jun-14 00:30N 29°39' W 094°15'2 4.9
2018-Jun-14 00:00N 29°41' W 094°13'2 4.7
2018-Jun-13 23:29N 29°41' W 094°10'2 4.7
2018-Jun-13 23:00N 29°43' W 094°08'2 4.8
2018-Jun-13 22:30N 29°44' W 094°06'2 4.7
2018-Jun-13 22:00N 29°46' W 094°03'2 4.8
2018-Jun-13 21:30N 29°47' W 094°01'2 4.7
2018-Jun-13 21:00N 29°49' W 093°59'2 4.3
2018-Jun-13 20:30N 29°50' W 093°57'4 7.1
2018-Jun-13 20:00N 29°53' W 093°55'4 7.4
2018-Jun-13 19:30N 29°56' W 093°53'3 5.3
2018-Jun-13 19:00N 29°58' W 093°51'3 5.0
2018-Jun-13 18:30N 29°59' W 093°48'3 5.9
2018-Jun-13 18:00N 30°01' W 093°46'3 5.7
2018-Jun-13 17:30N 30°03' W 093°43'3 4.6
2018-Jun-13 16:53N 30°04' W 093°40'2 4.8
2018-Jun-13 16:29N 30°04' W 093°38'2 4.7
2018-Jun-13 16:00N 30°04' W 093°35'2 4.3
2018-Jun-13 15:30N 30°04' W 093°33'2 4.8
2018-Jun-13 15:00N 30°04' W 093°30'2 4.0
2018-Jun-13 14:30N 30°04' W 093°28'2 4.6
2018-Jun-13 14:00N 30°04' W 093°25'2 3.9
2018-Jun-13 13:30N 30°04' W 093°23'1 2.9
2018-Jun-13 13:00N 30°04' W 093°21'2 3.4
2018-Jun-13 12:30N 30°05' W 093°20'2 3.6
2018-Jun-13 12:00N 30°07' W 093°20'2 4.8
2018-Jun-13 11:30N 30°09' W 093°20'2 4.3
2018-Jun-13 11:00N 30°11' W 093°19'2 5.0
2018-Jun-13 10:30N 30°12' W 093°16'1 1.4
2018-Jun-13 10:00N 30°13' W 093°16'0 0.3
2018-Jun-13 09:30N 30°13' W 093°16'1 2.1
2018-Jun-13 09:00N 30°14' W 093°15'0 0.0
2018-Jun-13 08:30N 30°14' W 093°15'0 0.0
2018-Jun-13 08:00N 30°14' W 093°15'0 0.0
2018-Jun-13 07:30N 30°14' W 093°15'0 0.0
2018-Jun-13 07:00N 30°14' W 093°15'0 0.0
2018-Jun-13 06:30N 30°14' W 093°15'0 0.0
2018-Jun-13 06:00N 30°14' W 093°15'0 0.0
2018-Jun-13 05:30N 30°14' W 093°15'0 0.0
2018-Jun-13 05:00N 30°14' W 093°15'0 0.0
2018-Jun-13 04:30N 30°14' W 093°15'0 0.0
2018-Jun-13 04:00N 30°14' W 093°15'0 0.0
2018-Jun-13 03:28N 30°14' W 093°15'0 0.0
2018-Jun-13 03:00N 30°14' W 093°15'0 0.0
2018-Jun-13 02:29N 30°14' W 093°15'0 0.0
2018-Jun-13 02:00N 30°14' W 093°15'0 0.0
2018-Jun-13 01:30N 30°14' W 093°15'0 0.0
2018-Jun-13 01:00N 30°14' W 093°15'0 0.0
2018-Jun-13 00:30N 30°14' W 093°15'0 0.0
2018-Jun-12 23:59N 30°14' W 093°15'0 0.0
2018-Jun-12 23:24N 30°14' W 093°15'0 0.0
2018-Jun-12 23:00N 30°14' W 093°15'0 0.0
2018-Jun-12 22:30N 30°14' W 093°15'0 0.0
2018-Jun-12 22:00N 30°14' W 093°15'0 0.0
2018-Jun-12 21:28N 30°14' W 093°15'0 0.0
2018-Jun-12 20:55N 30°14' W 093°15'0 0.0
2018-Jun-12 20:30N 30°14' W 093°15'0 0.0
2018-Jun-12 20:00N 30°14' W 093°15'0 0.0
2018-Jun-12 19:30N 30°14' W 093°15'0 0.0
2018-Jun-12 19:00N 30°14' W 093°15'0 0.0
2018-Jun-12 18:30N 30°14' W 093°15'0 0.0
2018-Jun-12 18:00N 30°14' W 093°15'0 0.0
2018-Jun-12 17:30N 30°14' W 093°15'0 0.0
2018-Jun-12 17:00N 30°14' W 093°15'0 0.0
2018-Jun-12 16:30N 30°14' W 093°15'0 0.0
2018-Jun-12 16:00N 30°14' W 093°15'0 0.0
2018-Jun-12 15:30N 30°14' W 093°15'0 0.0
2018-Jun-12 15:00N 30°14' W 093°15'0 0.0
2018-Jun-12 14:30N 30°14' W 093°15'0 0.0
2018-Jun-12 14:00N 30°14' W 093°15'0 0.0
2018-Jun-12 13:30N 30°14' W 093°15'0 0.0
2018-Jun-12 13:00N 30°14' W 093°15'0 0.0
2018-Jun-12 12:28N 30°14' W 093°15'0 0.0
2018-Jun-12 12:00N 30°14' W 093°15'0 0.0
2018-Jun-12 11:30N 30°14' W 093°15'0 0.0
2018-Jun-12 11:00N 30°14' W 093°15'0 0.0
2018-Jun-12 10:27N 30°14' W 093°15'0 0.0
2018-Jun-12 10:00N 30°14' W 093°15'0 0.0
2018-Jun-12 09:26N 30°14' W 093°15'0 0.0
2018-Jun-12 09:00N 30°14' W 093°15'0 0.0
2018-Jun-12 08:30N 30°14' W 093°15'0 0.0
2018-Jun-12 08:00N 30°14' W 093°15'0 0.0
2018-Jun-12 07:30N 30°14' W 093°15'0 0.0
2018-Jun-12 07:00N 30°14' W 093°15'0 0.0
2018-Jun-12 06:30N 30°14' W 093°15'0 0.0
2018-Jun-12 05:59N 30°14' W 093°15'0 0.0
2018-Jun-12 05:27N 30°14' W 093°15'0 0.0
2018-Jun-12 04:59N 30°14' W 093°15'0 0.0
2018-Jun-12 04:30N 30°14' W 093°15'0 0.0
2018-Jun-12 04:00N 30°14' W 093°15'0 0.0
2018-Jun-12 03:30N 30°14' W 093°15'0 0.0
2018-Jun-12 03:00N 30°14' W 093°15'0 0.0
2018-Jun-12 02:29N 30°14' W 093°15'0 0.0
2018-Jun-12 02:00N 30°14' W 093°15'0 0.0
2018-Jun-12 01:30N 30°14' W 093°15'0 0.0
2018-Jun-12 00:59N 30°14' W 093°15'0 0.0
2018-Jun-12 00:27N 30°14' W 093°15'0 0.0
2018-Jun-11 23:55N 30°14' W 093°15'0 0.0
2018-Jun-11 23:30N 30°14' W 093°15'0 0.0
2018-Jun-11 22:56N 30°14' W 093°15'0 0.0
2018-Jun-11 22:30N 30°14' W 093°15'0 0.8
2018-Jun-11 22:00N 30°14' W 093°16'0 0.1
2018-Jun-11 21:30N 30°14' W 093°16'0 0.0
2018-Jun-11 20:58N 30°14' W 093°16'0 0.0
2018-Jun-11 20:30N 30°14' W 093°16'0 0.0
2018-Jun-11 20:00N 30°14' W 093°16'0 0.0
2018-Jun-11 19:30N 30°14' W 093°16'0 0.0
2018-Jun-11 19:00N 30°14' W 093°16'0 0.0
2018-Jun-11 18:30N 30°14' W 093°16'0 0.0
2018-Jun-11 18:00N 30°14' W 093°16'0 0.0
2018-Jun-11 17:30N 30°14' W 093°16'0 0.0
2018-Jun-11 17:00N 30°14' W 093°16'0 0.0
2018-Jun-11 16:30N 30°14' W 093°16'0 0.0
2018-Jun-11 15:59N 30°14' W 093°16'0 0.0
2018-Jun-11 15:30N 30°14' W 093°16'0 0.0
2018-Jun-11 15:00N 30°14' W 093°16'0 0.0
2018-Jun-11 14:30N 30°14' W 093°16'0 0.0
2018-Jun-11 14:00N 30°14' W 093°16'0 0.0
2018-Jun-11 13:27N 30°14' W 093°16'0 0.0
2018-Jun-11 13:00N 30°14' W 093°16'0 0.0
2018-Jun-11 12:30N 30°14' W 093°16'0 0.2
2018-Jun-11 12:00N 30°14' W 093°16'0 0.1
2018-Jun-11 11:30N 30°14' W 093°16'0 0.0
2018-Jun-11 11:00N 30°14' W 093°16'0 0.1
2018-Jun-11 10:30N 30°14' W 093°16'1 2.2
2018-Jun-11 10:00N 30°12' W 093°16'3 5.6
2018-Jun-11 09:30N 30°11' W 093°19'3 5.1
2018-Jun-11 09:00N 30°09' W 093°20'0 0.8
2018-Jun-11 08:30N 30°08' W 093°20'3 5.3
2018-Jun-11 08:00N 30°06' W 093°19'1 2.5
2018-Jun-11 07:30N 30°06' W 093°18'1 1.7
2018-Jun-11 07:00N 30°05' W 093°17'1 2.9
2018-Jun-11 06:30N 30°04' W 093°16'0 0.8
2018-Jun-11 06:00N 30°04' W 093°16'0 0.0
2018-Jun-11 05:30N 30°04' W 093°16'0 0.0
2018-Jun-11 05:00N 30°04' W 093°16'0 0.0
2018-Jun-11 04:30N 30°04' W 093°16'0 0.0
2018-Jun-11 04:00N 30°04' W 093°16'0 0.0
2018-Jun-11 03:30N 30°04' W 093°16'0 0.0
2018-Jun-11 02:57N 30°04' W 093°16'0 0.0
2018-Jun-11 02:30N 30°04' W 093°16'0 0.0
2018-Jun-11 02:00N 30°04' W 093°16'2 3.5
2018-Jun-11 01:30N 30°02' W 093°15'0 0.7
2018-Jun-11 01:00N 30°02' W 093°15'0 0.0
2018-Jun-11 00:30N 30°02' W 093°15'0 0.8
2018-Jun-11 00:00N 30°02' W 093°14'2 4.0
2018-Jun-10 23:30N 29°60' W 093°13'0 0.0
2018-Jun-10 23:00N 29°60' W 093°13'0 0.0
2018-Jun-10 22:30N 29°60' W 093°13'0 0.0
2018-Jun-10 22:00N 29°60' W 093°13'0 0.0
2018-Jun-10 21:30N 29°60' W 093°13'0 0.0
2018-Jun-10 21:00N 29°60' W 093°13'0 0.0
2018-Jun-10 20:30N 29°60' W 093°13'0 0.0
2018-Jun-10 20:00N 29°60' W 093°13'1 1.6
2018-Jun-10 19:30N 29°59' W 093°13'3 5.3
2018-Jun-10 19:00N 29°57' W 093°11'2 4.8
2018-Jun-10 18:30N 29°56' W 093°08'18 5.2
2018-Jun-10 15:07N 29°58' W 092°48'19 4.5
2018-Jun-10 10:58N 29°54' W 092°28'3 5.4
2018-Jun-10 10:30N 29°53' W 092°25'3 4.5
2018-Jun-10 09:47N 29°51' W 092°22'0 1.5
2018-Jun-10 09:30N 29°51' W 092°21'2 3.9
2018-Jun-10 09:00N 29°50' W 092°19'2 3.9
2018-Jun-10 08:30N 29°49' W 092°17'2 4.4
2018-Jun-10 08:00N 29°48' W 092°15'2 4.4
2018-Jun-10 07:30N 29°47' W 092°13'1 2.5
2018-Jun-10 07:00N 29°47' W 092°11'0 0.0
2018-Jun-10 06:24N 29°47' W 092°11'0 0.0
2018-Jun-10 06:00N 29°47' W 092°11'0 0.0
2018-Jun-10 05:30N 29°47' W 092°11'0 0.0
2018-Jun-10 05:00N 29°47' W 092°11'0 0.4
2018-Jun-10 04:30N 29°47' W 092°11'1 2.8
2018-Jun-10 04:00N 29°47' W 092°10'0 0.1
2018-Jun-10 03:30N 29°47' W 092°10'1 2.0
2018-Jun-10 03:00N 29°47' W 092°09'3 5.6
2018-Jun-10 02:30N 29°48' W 092°06'3 5.5
2018-Jun-10 02:00N 29°49' W 092°03'3 5.2
2018-Jun-10 01:30N 29°50' W 091°60'56 4.1
2018-Jun-09 11:49N 29°35' W 090°58'2 5.2
2018-Jun-09 11:30N 29°34' W 090°57'3 5.5
2018-Jun-09 10:59N 29°33' W 090°54'3 5.3
2018-Jun-09 10:27N 29°32' W 090°51'2 5.4
2018-Jun-09 10:00N 29°32' W 090°48'2 4.6
2018-Jun-09 09:30N 29°33' W 090°45'2 4.0
2018-Jun-09 09:00N 29°34' W 090°43'2 4.0
2018-Jun-09 08:30N 29°36' W 090°43'1 2.9
2018-Jun-09 08:00N 29°36' W 090°41'3 5.3
2018-Jun-09 07:30N 29°35' W 090°38'2 4.9
2018-Jun-09 07:00N 29°35' W 090°36'3 5.2
2018-Jun-09 06:30N 29°34' W 090°33'2 4.1
2018-Jun-09 06:00N 29°34' W 090°30'  
Track history (hours):
 
Tides and Currents Weather Stations Pressure Air Temp Water Temp Dewpoint Dewpoint Depression Visibility Wind Speed Wind Dir Waves Ship Positions

Bobby Golding

Owner: GOLDING BARGE LINE, INC, VICKSBURG, MS. More information available from US FCC via Universal Licensing System and Coast Guard Vessel Documentation Center.

Last reported at 2018-Jun-14 10:50 UTC. Time now 2018-Jun-20 22:49 UTC.
Position N 29°43' W 095°01'.

Length 209 m; draft 2.8 m.

Type: . MMSI: 367595180.

Date/timePositionNaut miles runAvg speedWind from/ knotsBaromVisibWave heightAir tempDewpointWater temp
2018-Jun-14 10:50N 29°43' W 095°01'2 6.5
2018-Jun-14 10:30N 29°42' W 094°60'4 7.6
2018-Jun-14 10:00N 29°38' W 094°58'15 7.8
2018-Jun-14 08:02N 29°25' W 094°49'0 7.7
2018-Jun-14 08:00N 29°25' W 094°49'4 4.0
2018-Jun-14 07:05N 29°24' W 094°45'1 4.3
2018-Jun-14 06:49N 29°25' W 094°44'2 5.0
2018-Jun-14 06:27N 29°26' W 094°43'4 4.9
2018-Jun-14 05:41N 29°28' W 094°39'2 5.2
2018-Jun-14 05:20N 29°29' W 094°37'5 5.0
2018-Jun-14 04:24N 29°30' W 094°32'2 4.1
2018-Jun-14 03:55N 29°31' W 094°30'2 4.1
2018-Jun-14 03:30N 29°32' W 094°29'2 4.7
2018-Jun-14 02:59N 29°34' W 094°26'2 4.1
2018-Jun-14 02:28N 29°36' W 094°25'2 4.5
2018-Jun-14 02:00N 29°36' W 094°23'2 4.9
2018-Jun-14 01:30N 29°37' W 094°20'2 4.9
2018-Jun-14 01:00N 29°38' W 094°18'3 5.0
2018-Jun-14 00:30N 29°39' W 094°15'2 4.9
2018-Jun-14 00:00N 29°41' W 094°13'2 4.7
2018-Jun-13 23:29N 29°41' W 094°10'2 4.7
2018-Jun-13 23:00N 29°43' W 094°08'2 4.8
2018-Jun-13 22:30N 29°44' W 094°06'2 4.7
2018-Jun-13 22:00N 29°46' W 094°03'2 4.8
2018-Jun-13 21:30N 29°47' W 094°01'2 4.7
2018-Jun-13 21:00N 29°49' W 093°59'2 4.3
2018-Jun-13 20:30N 29°50' W 093°57'4 7.1
2018-Jun-13 20:00N 29°53' W 093°55'4 7.4
2018-Jun-13 19:30N 29°56' W 093°53'3 5.3
2018-Jun-13 19:00N 29°58' W 093°51'3 5.0
2018-Jun-13 18:30N 29°59' W 093°48'3 5.9
2018-Jun-13 18:00N 30°01' W 093°46'3 5.7
2018-Jun-13 17:30N 30°03' W 093°43'3 4.6
2018-Jun-13 16:53N 30°04' W 093°40'2 4.8
2018-Jun-13 16:29N 30°04' W 093°38'2 4.7
2018-Jun-13 16:00N 30°04' W 093°35'2 4.3
2018-Jun-13 15:30N 30°04' W 093°33'2 4.8
2018-Jun-13 15:00N 30°04' W 093°30'2 4.0
2018-Jun-13 14:30N 30°04' W 093°28'2 4.6
2018-Jun-13 14:00N 30°04' W 093°25'2 3.9
2018-Jun-13 13:30N 30°04' W 093°23'1 2.9
2018-Jun-13 13:00N 30°04' W 093°21'2 3.4
2018-Jun-13 12:30N 30°05' W 093°20'2 3.6
2018-Jun-13 12:00N 30°07' W 093°20'2 4.8
2018-Jun-13 11:30N 30°09' W 093°20'2 4.3
2018-Jun-13 11:00N 30°11' W 093°19'2 5.0
2018-Jun-13 10:30N 30°12' W 093°16'1 1.4
2018-Jun-13 10:00N 30°13' W 093°16'0 0.3
2018-Jun-13 09:30N 30°13' W 093°16'1 2.1
2018-Jun-13 09:00N 30°14' W 093°15'0 0.0
2018-Jun-13 08:30N 30°14' W 093°15'0 0.0
2018-Jun-13 08:00N 30°14' W 093°15'0 0.0
2018-Jun-13 07:30N 30°14' W 093°15'0 0.0
2018-Jun-13 07:00N 30°14' W 093°15'0 0.0
2018-Jun-13 06:30N 30°14' W 093°15'0 0.0
2018-Jun-13 06:00N 30°14' W 093°15'0 0.0
2018-Jun-13 05:30N 30°14' W 093°15'0 0.0
2018-Jun-13 05:00N 30°14' W 093°15'0 0.0
2018-Jun-13 04:30N 30°14' W 093°15'0 0.0
2018-Jun-13 04:00N 30°14' W 093°15'0 0.0
2018-Jun-13 03:28N 30°14' W 093°15'0 0.0
2018-Jun-13 03:00N 30°14' W 093°15'0 0.0
2018-Jun-13 02:29N 30°14' W 093°15'0 0.0
2018-Jun-13 02:00N 30°14' W 093°15'0 0.0
2018-Jun-13 01:30N 30°14' W 093°15'0 0.0
2018-Jun-13 01:00N 30°14' W 093°15'0 0.0
2018-Jun-13 00:30N 30°14' W 093°15'0 0.0
2018-Jun-12 23:59N 30°14' W 093°15'0 0.0
2018-Jun-12 23:24N 30°14' W 093°15'0 0.0
2018-Jun-12 23:00N 30°14' W 093°15'0 0.0
2018-Jun-12 22:30N 30°14' W 093°15'0 0.0
2018-Jun-12 22:00N 30°14' W 093°15'0 0.0
2018-Jun-12 21:28N 30°14' W 093°15'0 0.0
2018-Jun-12 20:55N 30°14' W 093°15'0 0.0
2018-Jun-12 20:30N 30°14' W 093°15'0 0.0
2018-Jun-12 20:00N 30°14' W 093°15'0 0.0
2018-Jun-12 19:30N 30°14' W 093°15'0 0.0
2018-Jun-12 19:00N 30°14' W 093°15'0 0.0
2018-Jun-12 18:30N 30°14' W 093°15'0 0.0
2018-Jun-12 18:00N 30°14' W 093°15'0 0.0
2018-Jun-12 17:30N 30°14' W 093°15'0 0.0
2018-Jun-12 17:00N 30°14' W 093°15'0 0.0
2018-Jun-12 16:30N 30°14' W 093°15'0 0.0
2018-Jun-12 16:00N 30°14' W 093°15'0 0.0
2018-Jun-12 15:30N 30°14' W 093°15'0 0.0
2018-Jun-12 15:00N 30°14' W 093°15'0 0.0
2018-Jun-12 14:30N 30°14' W 093°15'0 0.0
2018-Jun-12 14:00N 30°14' W 093°15'0 0.0
2018-Jun-12 13:30N 30°14' W 093°15'0 0.0
2018-Jun-12 13:00N 30°14' W 093°15'0 0.0
2018-Jun-12 12:28N 30°14' W 093°15'0 0.0
2018-Jun-12 12:00N 30°14' W 093°15'0 0.0
2018-Jun-12 11:30N 30°14' W 093°15'0 0.0
2018-Jun-12 11:00N 30°14' W 093°15'0 0.0
2018-Jun-12 10:27N 30°14' W 093°15'0 0.0
2018-Jun-12 10:00N 30°14' W 093°15'0 0.0
2018-Jun-12 09:26N 30°14' W 093°15'0 0.0
2018-Jun-12 09:00N 30°14' W 093°15'0 0.0
2018-Jun-12 08:30N 30°14' W 093°15'0 0.0
2018-Jun-12 08:00N 30°14' W 093°15'0 0.0
2018-Jun-12 07:30N 30°14' W 093°15'0 0.0
2018-Jun-12 07:00N 30°14' W 093°15'0 0.0
2018-Jun-12 06:30N 30°14' W 093°15'0 0.0
2018-Jun-12 05:59N 30°14' W 093°15'0 0.0
2018-Jun-12 05:27N 30°14' W 093°15'0 0.0
2018-Jun-12 04:59N 30°14' W 093°15'0 0.0
2018-Jun-12 04:30N 30°14' W 093°15'0 0.0
2018-Jun-12 04:00N 30°14' W 093°15'0 0.0
2018-Jun-12 03:30N 30°14' W 093°15'0 0.0
2018-Jun-12 03:00N 30°14' W 093°15'0 0.0
2018-Jun-12 02:29N 30°14' W 093°15'0 0.0
2018-Jun-12 02:00N 30°14' W 093°15'0 0.0
2018-Jun-12 01:30N 30°14' W 093°15'0 0.0
2018-Jun-12 00:59N 30°14' W 093°15'0 0.0
2018-Jun-12 00:27N 30°14' W 093°15'0 0.0
2018-Jun-11 23:55N 30°14' W 093°15'0 0.0
2018-Jun-11 23:30N 30°14' W 093°15'0 0.0
2018-Jun-11 22:56N 30°14' W 093°15'0 0.0
2018-Jun-11 22:30N 30°14' W 093°15'0 0.8
2018-Jun-11 22:00N 30°14' W 093°16'0 0.1
2018-Jun-11 21:30N 30°14' W 093°16'0 0.0
2018-Jun-11 20:58N 30°14' W 093°16'0 0.0
2018-Jun-11 20:30N 30°14' W 093°16'0 0.0
2018-Jun-11 20:00N 30°14' W 093°16'0 0.0
2018-Jun-11 19:30N 30°14' W 093°16'0 0.0
2018-Jun-11 19:00N 30°14' W 093°16'0 0.0
2018-Jun-11 18:30N 30°14' W 093°16'0 0.0
2018-Jun-11 18:00N 30°14' W 093°16'0 0.0
2018-Jun-11 17:30N 30°14' W 093°16'0 0.0
2018-Jun-11 17:00N 30°14' W 093°16'0 0.0
2018-Jun-11 16:30N 30°14' W 093°16'0 0.0
2018-Jun-11 15:59N 30°14' W 093°16'0 0.0
2018-Jun-11 15:30N 30°14' W 093°16'0 0.0
2018-Jun-11 15:00N 30°14' W 093°16'0 0.0
2018-Jun-11 14:30N 30°14' W 093°16'0 0.0
2018-Jun-11 14:00N 30°14' W 093°16'0 0.0
2018-Jun-11 13:27N 30°14' W 093°16'0 0.0
2018-Jun-11 13:00N 30°14' W 093°16'0 0.0
2018-Jun-11 12:30N 30°14' W 093°16'0 0.2
2018-Jun-11 12:00N 30°14' W 093°16'0 0.1
2018-Jun-11 11:30N 30°14' W 093°16'0 0.0
2018-Jun-11 11:00N 30°14' W 093°16'0 0.1
2018-Jun-11 10:30N 30°14' W 093°16'1 2.2
2018-Jun-11 10:00N 30°12' W 093°16'3 5.6
2018-Jun-11 09:30N 30°11' W 093°19'3 5.1
2018-Jun-11 09:00N 30°09' W 093°20'0 0.8
2018-Jun-11 08:30N 30°08' W 093°20'3 5.3
2018-Jun-11 08:00N 30°06' W 093°19'1 2.5
2018-Jun-11 07:30N 30°06' W 093°18'1 1.7
2018-Jun-11 07:00N 30°05' W 093°17'1 2.9
2018-Jun-11 06:30N 30°04' W 093°16'0 0.8
2018-Jun-11 06:00N 30°04' W 093°16'0 0.0
2018-Jun-11 05:30N 30°04' W 093°16'0 0.0
2018-Jun-11 05:00N 30°04' W 093°16'0 0.0
2018-Jun-11 04:30N 30°04' W 093°16'0 0.0
2018-Jun-11 04:00N 30°04' W 093°16'0 0.0
2018-Jun-11 03:30N 30°04' W 093°16'0 0.0
2018-Jun-11 02:57N 30°04' W 093°16'0 0.0
2018-Jun-11 02:30N 30°04' W 093°16'0 0.0
2018-Jun-11 02:00N 30°04' W 093°16'2 3.5
2018-Jun-11 01:30N 30°02' W 093°15'0 0.7
2018-Jun-11 01:00N 30°02' W 093°15'0 0.0
2018-Jun-11 00:30N 30°02' W 093°15'0 0.8
2018-Jun-11 00:00N 30°02' W 093°14'2 4.0
2018-Jun-10 23:30N 29°60' W 093°13'0 0.0
2018-Jun-10 23:00N 29°60' W 093°13'0 0.0
2018-Jun-10 22:30N 29°60' W 093°13'0 0.0
2018-Jun-10 22:00N 29°60' W 093°13'0 0.0
2018-Jun-10 21:30N 29°60' W 093°13'0 0.0
2018-Jun-10 21:00N 29°60' W 093°13'0 0.0
2018-Jun-10 20:30N 29°60' W 093°13'0 0.0
2018-Jun-10 20:00N 29°60' W 093°13'1 1.6
2018-Jun-10 19:30N 29°59' W 093°13'3 5.3
2018-Jun-10 19:00N 29°57' W 093°11'2 4.8
2018-Jun-10 18:30N 29°56' W 093°08'18 5.2
2018-Jun-10 15:07N 29°58' W 092°48'19 4.5
2018-Jun-10 10:58N 29°54' W 092°28'3 5.4
2018-Jun-10 10:30N 29°53' W 092°25'3 4.5
2018-Jun-10 09:47N 29°51' W 092°22'0 1.5
2018-Jun-10 09:30N 29°51' W 092°21'2 3.9
2018-Jun-10 09:00N 29°50' W 092°19'2 3.9
2018-Jun-10 08:30N 29°49' W 092°17'2 4.4
2018-Jun-10 08:00N 29°48' W 092°15'2 4.4
2018-Jun-10 07:30N 29°47' W 092°13'1 2.5
2018-Jun-10 07:00N 29°47' W 092°11'0 0.0
2018-Jun-10 06:24N 29°47' W 092°11'0 0.0
2018-Jun-10 06:00N 29°47' W 092°11'0 0.0
2018-Jun-10 05:30N 29°47' W 092°11'0 0.0
2018-Jun-10 05:00N 29°47' W 092°11'0 0.4
2018-Jun-10 04:30N 29°47' W 092°11'1 2.8
2018-Jun-10 04:00N 29°47' W 092°10'0 0.1
2018-Jun-10 03:30N 29°47' W 092°10'1 2.0
2018-Jun-10 03:00N 29°47' W 092°09'3 5.6
2018-Jun-10 02:30N 29°48' W 092°06'3 5.5
2018-Jun-10 02:00N 29°49' W 092°03'3 5.2
2018-Jun-10 01:30N 29°50' W 091°60'56 4.1
2018-Jun-09 11:49N 29°35' W 090°58'2 5.2
2018-Jun-09 11:30N 29°34' W 090°57'3 5.5
2018-Jun-09 10:59N 29°33' W 090°54'3 5.3
2018-Jun-09 10:27N 29°32' W 090°51'2 5.4
2018-Jun-09 10:00N 29°32' W 090°48'2 4.6
2018-Jun-09 09:30N 29°33' W 090°45'2 4.0
2018-Jun-09 09:00N 29°34' W 090°43'2 4.0
2018-Jun-09 08:30N 29°36' W 090°43'1 2.9
2018-Jun-09 08:00N 29°36' W 090°41'3 5.3
2018-Jun-09 07:30N 29°35' W 090°38'2 4.9
2018-Jun-09 07:00N 29°35' W 090°36'3 5.2
2018-Jun-09 06:30N 29°34' W 090°33'2 4.1
2018-Jun-09 06:00N 29°34' W 090°30'  

Dump ship's entire track history